Capo Vado — IPWV — position and weather

sailwx.info

Track history (hours):
 
Tides and Currents Weather Stations Pressure Air Temp Water Temp Dewpoint Dewpoint Depression Visibility Wind Speed Wind Dir Waves Ship Positions

Capo Vado

Last reported at 2015-Feb-28 19:32 UTC. Time now 2015-Feb-28 20:54 UTC.
Position N 44°18' E 008°29'.

Length 30 m.

Type: Tug. MMSI: 247228400.

Date/timePositionNaut miles runAvg speedWind from/ knotsBaromVisibWave heightAir tempDewpointWater temp
2015-Feb-28 19:32N 44°18' E 008°29'0 0.0
2015-Feb-28 17:17N 44°18' E 008°29'0 0.0
2015-Feb-28 16:23N 44°18' E 008°29'0 0.0
2015-Feb-28 15:29N 44°18' E 008°29'0 0.0
2015-Feb-28 14:29N 44°18' E 008°29'0 0.0
2015-Feb-28 13:17N 44°18' E 008°29'0 0.0
2015-Feb-28 12:29N 44°18' E 008°29'0 0.0
2015-Feb-28 11:29N 44°18' E 008°29'0 0.0
2015-Feb-28 10:29N 44°18' E 008°29'0 0.0
2015-Feb-28 09:29N 44°18' E 008°29'3 3.3
2015-Feb-28 08:33N 44°16' E 008°27'4 3.6
2015-Feb-28 07:33N 44°19' E 008°30'0 0.5
2015-Feb-28 06:30N 44°18' E 008°29'0 0.0
2015-Feb-28 05:29N 44°18' E 008°29'0 0.0
2015-Feb-28 04:30N 44°18' E 008°29'0 0.0
2015-Feb-28 03:32N 44°18' E 008°29'0 0.0
2015-Feb-28 02:32N 44°18' E 008°29'0 0.0
2015-Feb-28 01:29N 44°18' E 008°29'0 0.0
2015-Feb-28 00:30N 44°18' E 008°29'0 0.0
2015-Feb-27 23:33N 44°18' E 008°29'0 0.0
2015-Feb-27 22:29N 44°18' E 008°29'0 0.0
2015-Feb-27 21:30N 44°18' E 008°29'0 0.0
2015-Feb-27 20:30N 44°18' E 008°29'0 0.0
2015-Feb-27 19:32N 44°18' E 008°29'0 0.0
2015-Feb-27 18:29N 44°18' E 008°29'0 0.0
2015-Feb-27 17:29N 44°18' E 008°29'0 0.0
2015-Feb-27 16:29N 44°18' E 008°29'0 0.0
2015-Feb-27 15:29N 44°18' E 008°29'0 0.0
2015-Feb-27 14:29N 44°18' E 008°29'0 0.0
2015-Feb-27 13:29N 44°18' E 008°29'0 0.0
2015-Feb-27 12:29N 44°18' E 008°29'0 0.0
2015-Feb-27 11:32N 44°18' E 008°29'0 0.0
2015-Feb-27 10:30N 44°18' E 008°29'0 0.0
2015-Feb-27 09:29N 44°18' E 008°29'0 0.0
2015-Feb-27 08:29N 44°18' E 008°29'0 0.0
2015-Feb-27 07:32N 44°18' E 008°29'0 0.0
2015-Feb-27 06:30N 44°18' E 008°29'0 0.0
2015-Feb-27 05:30N 44°18' E 008°29'1 1.0
2015-Feb-27 04:33N 44°19' E 008°30'1 0.9
2015-Feb-27 03:33N 44°18' E 008°29'0 0.0
2015-Feb-27 02:30N 44°18' E 008°29'0 0.0
2015-Feb-27 01:33N 44°18' E 008°29'0 0.0
2015-Feb-27 00:33N 44°18' E 008°29'0 0.0
2015-Feb-26 23:33N 44°18' E 008°29'0 0.0
2015-Feb-26 22:30N 44°18' E 008°29'0 0.0
2015-Feb-26 21:30N 44°18' E 008°29'0 0.0
2015-Feb-26 20:33N 44°18' E 008°29'0 0.0
2015-Feb-26 19:33N 44°18' E 008°29'0 0.0
2015-Feb-26 18:30N 44°18' E 008°29'0 0.0
2015-Feb-26 17:30N 44°18' E 008°29'0 0.0
2015-Feb-26 16:30N 44°18' E 008°29'0 0.0
2015-Feb-26 15:33N 44°18' E 008°29'0 0.0
2015-Feb-26 14:30N 44°18' E 008°29'0 0.0
2015-Feb-26 13:30N 44°18' E 008°29'0 0.0
2015-Feb-26 12:30N 44°18' E 008°29'0 0.0
2015-Feb-26 11:33N 44°18' E 008°29'0 0.0
2015-Feb-26 10:30N 44°18' E 008°29'1 1.2
2015-Feb-26 09:34N 44°17' E 008°29'1 1.1
2015-Feb-26 08:33N 44°17' E 008°28'1 0.6
2015-Feb-26 07:31N 44°16' E 008°28'3 3.2
2015-Feb-26 06:33N 44°19' E 008°30'0 0.5
2015-Feb-26 05:32N 44°18' E 008°29'0 0.0
2015-Feb-26 04:32N 44°18' E 008°29'0 0.0
2015-Feb-26 03:32N 44°18' E 008°29'0 0.0
2015-Feb-26 02:32N 44°18' E 008°29'0 0.0
2015-Feb-26 01:32N 44°18' E 008°29'0 0.0
2015-Feb-26 00:32N 44°18' E 008°29'0 0.0
2015-Feb-25 23:32N 44°18' E 008°29'0 0.0
2015-Feb-25 22:26N 44°18' E 008°29'0 0.0
2015-Feb-25 21:32N 44°18' E 008°29'0 0.0
2015-Feb-25 20:26N 44°18' E 008°29'0 0.0
2015-Feb-25 19:32N 44°18' E 008°29'0 0.0
2015-Feb-25 18:32N 44°18' E 008°29'0 0.0
2015-Feb-25 17:32N 44°18' E 008°29'0 0.0
2015-Feb-25 16:32N 44°18' E 008°29'0 0.0
2015-Feb-25 15:32N 44°18' E 008°29'0 0.0
2015-Feb-25 14:32N 44°18' E 008°29'0 0.0
2015-Feb-25 13:32N 44°18' E 008°29'0 0.0
2015-Feb-25 12:32N 44°18' E 008°29'0 0.0
2015-Feb-25 11:32N 44°18' E 008°29'0 0.0
2015-Feb-25 10:32N 44°18' E 008°29'0 0.0
2015-Feb-25 09:26N 44°18' E 008°29'0 0.0
2015-Feb-25 08:32N 44°18' E 008°29'0 0.0
2015-Feb-25 07:32N 44°18' E 008°29'0 0.0
2015-Feb-25 06:26N 44°18' E 008°29'0 0.0
2015-Feb-25 05:26N 44°18' E 008°29'0 0.0
2015-Feb-25 04:32N 44°18' E 008°29'3 3.1
2015-Feb-25 03:33N 44°16' E 008°27'4 3.8
2015-Feb-25 02:33N 44°19' E 008°30'0 0.4
2015-Feb-25 01:31N 44°19' E 008°30'0 0.5
2015-Feb-25 00:32N 44°18' E 008°29'1 0.7
2015-Feb-24 23:33N 44°19' E 008°30'1 0.7
2015-Feb-24 22:28N 44°18' E 008°29'0 0.0
2015-Feb-24 21:31N 44°18' E 008°29'0 0.0
2015-Feb-24 20:31N 44°18' E 008°29'0 0.0
2015-Feb-24 19:25N 44°18' E 008°29'0 0.0
2015-Feb-24 18:31N 44°18' E 008°29'0 0.0
2015-Feb-24 17:31N 44°18' E 008°29'0 0.0
2015-Feb-24 16:31N 44°18' E 008°29'0 0.0
2015-Feb-24 15:31N 44°18' E 008°29'0 0.0
2015-Feb-24 14:31N 44°18' E 008°29'0 0.0
2015-Feb-24 13:31N 44°18' E 008°29'0 0.0
2015-Feb-24 12:31N 44°18' E 008°29'0 0.0
2015-Feb-24 11:31N 44°18' E 008°29'0 0.0
2015-Feb-24 10:31N 44°18' E 008°29'0 0.0
2015-Feb-24 09:31N 44°18' E 008°29'0 0.0
2015-Feb-24 08:31N 44°18' E 008°29'0 0.0
2015-Feb-24 07:31N 44°18' E 008°29'0 0.0
2015-Feb-24 06:31N 44°18' E 008°29'0 0.0
2015-Feb-24 05:31N 44°18' E 008°29'0 0.0
2015-Feb-24 04:31N 44°18' E 008°29'0 0.0
2015-Feb-24 03:31N 44°18' E 008°29'0 0.0
2015-Feb-24 02:31N 44°18' E 008°29'0 0.0
2015-Feb-24 01:31N 44°18' E 008°29'0 0.0
2015-Feb-24 00:31N 44°18' E 008°29'0 0.0
2015-Feb-23 23:31N 44°18' E 008°29'0 0.0
2015-Feb-23 22:31N 44°18' E 008°29'0 0.0
2015-Feb-23 21:31N 44°18' E 008°29'0 0.0
2015-Feb-23 20:31N 44°18' E 008°29'0 0.0
2015-Feb-23 19:31N 44°18' E 008°29'0 0.0
2015-Feb-23 18:31N 44°18' E 008°29'0 0.0
2015-Feb-23 17:25N 44°18' E 008°29'0 0.0
2015-Feb-23 16:31N 44°18' E 008°29'0 0.0
2015-Feb-23 15:31N 44°18' E 008°29'0 0.0
2015-Feb-23 14:31N 44°18' E 008°29'0 0.0
2015-Feb-23 13:31N 44°18' E 008°29'0 0.0
2015-Feb-23 12:31N 44°18' E 008°29'0 0.0
2015-Feb-23 11:31N 44°18' E 008°29'0 0.0
2015-Feb-23 10:31N 44°18' E 008°29'0 0.0
2015-Feb-23 09:31N 44°18' E 008°29'0 0.0
2015-Feb-23 08:31N 44°18' E 008°29'0 0.0
2015-Feb-23 07:31N 44°18' E 008°29'0 0.0
2015-Feb-23 06:31N 44°18' E 008°29'0 0.0
2015-Feb-23 05:31N 44°18' E 008°29'0 0.0
2015-Feb-23 04:31N 44°18' E 008°29'0 0.0
2015-Feb-23 03:25N 44°18' E 008°29'0 0.0
2015-Feb-23 02:31N 44°18' E 008°29'0 0.0
2015-Feb-23 01:31N 44°18' E 008°29'0 0.0
2015-Feb-23 00:31N 44°18' E 008°29'0 0.0
2015-Feb-22 23:31N 44°18' E 008°29'0 0.0
2015-Feb-22 22:31N 44°18' E 008°29'0 0.0
2015-Feb-22 21:31N 44°18' E 008°29'0 0.0
2015-Feb-22 20:31N 44°18' E 008°29'0 0.0
2015-Feb-22 19:25N 44°18' E 008°29'0 0.0
2015-Feb-22 18:31N 44°18' E 008°29'0 0.0
2015-Feb-22 17:31N 44°18' E 008°29'0 0.0
2015-Feb-22 16:31N 44°18' E 008°29'0 0.0
2015-Feb-22 15:31N 44°18' E 008°29'0 0.0
2015-Feb-22 14:31N 44°18' E 008°29'0 0.0
2015-Feb-22 13:31N 44°18' E 008°29'0 0.0
2015-Feb-22 12:31N 44°18' E 008°29'0 0.0
2015-Feb-22 11:31N 44°18' E 008°29'0 0.0
2015-Feb-22 10:31N 44°18' E 008°29'1 1.0
2015-Feb-22 09:33N 44°19' E 008°31'1 1.0
2015-Feb-22 08:33N 44°18' E 008°29'0 0.0
2015-Feb-22 07:27N 44°18' E 008°29'0 0.0
2015-Feb-22 06:27N 44°18' E 008°29'0 0.0
2015-Feb-22 05:33N 44°18' E 008°29'0 0.0
2015-Feb-22 04:33N 44°18' E 008°29'0 0.0
2015-Feb-22 03:33N 44°18' E 008°29'0 0.0
2015-Feb-22 02:33N 44°18' E 008°29'0 0.0
2015-Feb-22 01:33N 44°18' E 008°29'0 0.0
2015-Feb-22 00:33N 44°18' E 008°29'0 0.0
2015-Feb-21 23:33N 44°18' E 008°29'0 0.0
2015-Feb-21 22:33N 44°18' E 008°29'0 0.0
2015-Feb-21 21:33N 44°18' E 008°29'0 0.0
2015-Feb-21 20:33N 44°18' E 008°29'0 0.0
2015-Feb-21 19:33N 44°18' E 008°29'0 0.0
2015-Feb-21 18:33N 44°18' E 008°29'0 0.0
2015-Feb-21 17:33N 44°18' E 008°29'0 0.0
2015-Feb-21 16:33N 44°18' E 008°29'0 0.0
2015-Feb-21 15:33N 44°18' E 008°29'0 0.0
2015-Feb-21 14:33N 44°18' E 008°29'0 0.0
2015-Feb-21 13:33N 44°18' E 008°29'0 0.0
2015-Feb-21 12:33N 44°18' E 008°29'0 0.0
2015-Feb-21 11:33N 44°18' E 008°29'0 0.0
2015-Feb-21 10:33N 44°18' E 008°29'0 0.0
2015-Feb-21 09:33N 44°18' E 008°29'0 0.0
2015-Feb-21 08:33N 44°18' E 008°29'0 0.0
2015-Feb-21 07:33N 44°18' E 008°29'0 0.0
2015-Feb-21 06:33N 44°18' E 008°29'0 0.0
2015-Feb-21 05:33N 44°18' E 008°29'0 0.0
2015-Feb-21 04:33N 44°18' E 008°29'0 0.0
2015-Feb-21 03:33N 44°18' E 008°29'0 0.0
2015-Feb-21 02:33N 44°18' E 008°29'0 0.0
2015-Feb-21 01:33N 44°18' E 008°29'0 0.0
2015-Feb-21 00:33N 44°18' E 008°29'0 0.0
2015-Feb-20 23:33N 44°18' E 008°29'1 1.2
2015-Feb-20 22:33N 44°17' E 008°29'0 0.5
2015-Feb-20 21:33N 44°18' E 008°29'1 0.7
2015-Feb-20 20:33N 44°18' E 008°29'0 0.0
2015-Feb-20 19:33N 44°18' E 008°29'0 0.0
2015-Feb-20 18:33N 44°18' E 008°29'0 0.0
2015-Feb-20 17:33N 44°18' E 008°29'0 0.0
2015-Feb-20 16:33N 44°18' E 008°29'0 0.0
2015-Feb-20 15:33N 44°18' E 008°29'0 0.0
2015-Feb-20 14:33N 44°18' E 008°29'0 0.0
2015-Feb-20 13:33N 44°18' E 008°29'0 0.0
2015-Feb-20 12:33N 44°18' E 008°29'0 0.0
2015-Feb-20 11:33N 44°18' E 008°29'0 0.0
2015-Feb-20 10:33N 44°18' E 008°29'0 0.0
2015-Feb-20 09:33N 44°18' E 008°29'0 0.0
2015-Feb-20 08:33N 44°18' E 008°29'0 0.0
2015-Feb-20 07:33N 44°18' E 008°29'0 0.0
2015-Feb-20 06:33N 44°18' E 008°29'0 0.0
2015-Feb-20 05:33N 44°18' E 008°29'0 0.0
2015-Feb-20 04:33N 44°18' E 008°29'0 0.0
2015-Feb-20 03:33N 44°18' E 008°29'0 0.0
2015-Feb-20 02:33N 44°18' E 008°29'0 0.0
2015-Feb-20 01:33N 44°18' E 008°29'0 0.0
2015-Feb-20 00:33N 44°18' E 008°29'0 0.0
2015-Feb-19 23:33N 44°18' E 008°29'0 0.0
2015-Feb-19 22:33N 44°18' E 008°29'0 0.0
2015-Feb-19 21:33N 44°18' E 008°29'0 0.0
2015-Feb-19 20:33N 44°18' E 008°29'0 0.0
2015-Feb-19 19:33N 44°18' E 008°29'0 0.0
2015-Feb-19 18:33N 44°18' E 008°29'0 0.0
2015-Feb-19 17:33N 44°18' E 008°29'0 0.0
2015-Feb-19 16:33N 44°18' E 008°29'2 2.1
2015-Feb-19 15:33N 44°17' E 008°28'0 0.1
2015-Feb-19 14:33N 44°17' E 008°28'2 2.1
2015-Feb-19 13:33N 44°18' E 008°29'0 0.0
2015-Feb-19 12:33N 44°18' E 008°29'0 0.0
2015-Feb-19 11:33N 44°18' E 008°29'0 0.0
2015-Feb-19 10:33N 44°18' E 008°29'0 0.0
2015-Feb-19 09:33N 44°18' E 008°29'0 0.0
2015-Feb-19 08:33N 44°18' E 008°29'0 0.0
2015-Feb-19 07:33N 44°18' E 008°29'0 0.0
2015-Feb-19 06:33N 44°18' E 008°29'0 0.4
2015-Feb-19 05:33N 44°19' E 008°30'0 0.4
2015-Feb-19 04:33N 44°18' E 008°29'0 0.0
2015-Feb-19 03:33N 44°18' E 008°29'0 0.0
2015-Feb-19 02:33N 44°18' E 008°29'0 0.0
2015-Feb-19 01:34N 44°18' E 008°29'0 0.0
2015-Feb-19 00:33N 44°18' E 008°29'0 0.0
2015-Feb-18 23:33N 44°18' E 008°29'0 0.0
2015-Feb-18 22:33N 44°18' E 008°29'0 0.0
2015-Feb-18 21:33N 44°18' E 008°29'0 0.0
2015-Feb-18 20:33N 44°18' E 008°29'0 0.0
2015-Feb-18 19:33N 44°18' E 008°29'  
Track history (hours):
 
Tides and Currents Weather Stations Pressure Air Temp Water Temp Dewpoint Dewpoint Depression Visibility Wind Speed Wind Dir Waves Ship Positions

Capo Vado

Last reported at 2015-Feb-28 19:32 UTC. Time now 2015-Feb-28 20:54 UTC.
Position N 44°18' E 008°29'.

Length 30 m.

Type: Tug. MMSI: 247228400.

Date/timePositionNaut miles runAvg speedWind from/ knotsBaromVisibWave heightAir tempDewpointWater temp
2015-Feb-28 19:32N 44°18' E 008°29'0 0.0
2015-Feb-28 17:17N 44°18' E 008°29'0 0.0
2015-Feb-28 16:23N 44°18' E 008°29'0 0.0
2015-Feb-28 15:29N 44°18' E 008°29'0 0.0
2015-Feb-28 14:29N 44°18' E 008°29'0 0.0
2015-Feb-28 13:17N 44°18' E 008°29'0 0.0
2015-Feb-28 12:29N 44°18' E 008°29'0 0.0
2015-Feb-28 11:29N 44°18' E 008°29'0 0.0
2015-Feb-28 10:29N 44°18' E 008°29'0 0.0
2015-Feb-28 09:29N 44°18' E 008°29'3 3.3
2015-Feb-28 08:33N 44°16' E 008°27'4 3.6
2015-Feb-28 07:33N 44°19' E 008°30'0 0.5
2015-Feb-28 06:30N 44°18' E 008°29'0 0.0
2015-Feb-28 05:29N 44°18' E 008°29'0 0.0
2015-Feb-28 04:30N 44°18' E 008°29'0 0.0
2015-Feb-28 03:32N 44°18' E 008°29'0 0.0
2015-Feb-28 02:32N 44°18' E 008°29'0 0.0
2015-Feb-28 01:29N 44°18' E 008°29'0 0.0
2015-Feb-28 00:30N 44°18' E 008°29'0 0.0
2015-Feb-27 23:33N 44°18' E 008°29'0 0.0
2015-Feb-27 22:29N 44°18' E 008°29'0 0.0
2015-Feb-27 21:30N 44°18' E 008°29'0 0.0
2015-Feb-27 20:30N 44°18' E 008°29'0 0.0
2015-Feb-27 19:32N 44°18' E 008°29'0 0.0
2015-Feb-27 18:29N 44°18' E 008°29'0 0.0
2015-Feb-27 17:29N 44°18' E 008°29'0 0.0
2015-Feb-27 16:29N 44°18' E 008°29'0 0.0
2015-Feb-27 15:29N 44°18' E 008°29'0 0.0
2015-Feb-27 14:29N 44°18' E 008°29'0 0.0
2015-Feb-27 13:29N 44°18' E 008°29'0 0.0
2015-Feb-27 12:29N 44°18' E 008°29'0 0.0
2015-Feb-27 11:32N 44°18' E 008°29'0 0.0
2015-Feb-27 10:30N 44°18' E 008°29'0 0.0
2015-Feb-27 09:29N 44°18' E 008°29'0 0.0
2015-Feb-27 08:29N 44°18' E 008°29'0 0.0
2015-Feb-27 07:32N 44°18' E 008°29'0 0.0
2015-Feb-27 06:30N 44°18' E 008°29'0 0.0
2015-Feb-27 05:30N 44°18' E 008°29'1 1.0
2015-Feb-27 04:33N 44°19' E 008°30'1 0.9
2015-Feb-27 03:33N 44°18' E 008°29'0 0.0
2015-Feb-27 02:30N 44°18' E 008°29'0 0.0
2015-Feb-27 01:33N 44°18' E 008°29'0 0.0
2015-Feb-27 00:33N 44°18' E 008°29'0 0.0
2015-Feb-26 23:33N 44°18' E 008°29'0 0.0
2015-Feb-26 22:30N 44°18' E 008°29'0 0.0
2015-Feb-26 21:30N 44°18' E 008°29'0 0.0
2015-Feb-26 20:33N 44°18' E 008°29'0 0.0
2015-Feb-26 19:33N 44°18' E 008°29'0 0.0
2015-Feb-26 18:30N 44°18' E 008°29'0 0.0
2015-Feb-26 17:30N 44°18' E 008°29'0 0.0
2015-Feb-26 16:30N 44°18' E 008°29'0 0.0
2015-Feb-26 15:33N 44°18' E 008°29'0 0.0
2015-Feb-26 14:30N 44°18' E 008°29'0 0.0
2015-Feb-26 13:30N 44°18' E 008°29'0 0.0
2015-Feb-26 12:30N 44°18' E 008°29'0 0.0
2015-Feb-26 11:33N 44°18' E 008°29'0 0.0
2015-Feb-26 10:30N 44°18' E 008°29'1 1.2
2015-Feb-26 09:34N 44°17' E 008°29'1 1.1
2015-Feb-26 08:33N 44°17' E 008°28'1 0.6
2015-Feb-26 07:31N 44°16' E 008°28'3 3.2
2015-Feb-26 06:33N 44°19' E 008°30'0 0.5
2015-Feb-26 05:32N 44°18' E 008°29'0 0.0
2015-Feb-26 04:32N 44°18' E 008°29'0 0.0
2015-Feb-26 03:32N 44°18' E 008°29'0 0.0
2015-Feb-26 02:32N 44°18' E 008°29'0 0.0
2015-Feb-26 01:32N 44°18' E 008°29'0 0.0
2015-Feb-26 00:32N 44°18' E 008°29'0 0.0
2015-Feb-25 23:32N 44°18' E 008°29'0 0.0
2015-Feb-25 22:26N 44°18' E 008°29'0 0.0
2015-Feb-25 21:32N 44°18' E 008°29'0 0.0
2015-Feb-25 20:26N 44°18' E 008°29'0 0.0
2015-Feb-25 19:32N 44°18' E 008°29'0 0.0
2015-Feb-25 18:32N 44°18' E 008°29'0 0.0
2015-Feb-25 17:32N 44°18' E 008°29'0 0.0
2015-Feb-25 16:32N 44°18' E 008°29'0 0.0
2015-Feb-25 15:32N 44°18' E 008°29'0 0.0
2015-Feb-25 14:32N 44°18' E 008°29'0 0.0
2015-Feb-25 13:32N 44°18' E 008°29'0 0.0
2015-Feb-25 12:32N 44°18' E 008°29'0 0.0
2015-Feb-25 11:32N 44°18' E 008°29'0 0.0
2015-Feb-25 10:32N 44°18' E 008°29'0 0.0
2015-Feb-25 09:26N 44°18' E 008°29'0 0.0
2015-Feb-25 08:32N 44°18' E 008°29'0 0.0
2015-Feb-25 07:32N 44°18' E 008°29'0 0.0
2015-Feb-25 06:26N 44°18' E 008°29'0 0.0
2015-Feb-25 05:26N 44°18' E 008°29'0 0.0
2015-Feb-25 04:32N 44°18' E 008°29'3 3.1
2015-Feb-25 03:33N 44°16' E 008°27'4 3.8
2015-Feb-25 02:33N 44°19' E 008°30'0 0.4
2015-Feb-25 01:31N 44°19' E 008°30'0 0.5
2015-Feb-25 00:32N 44°18' E 008°29'1 0.7
2015-Feb-24 23:33N 44°19' E 008°30'1 0.7
2015-Feb-24 22:28N 44°18' E 008°29'0 0.0
2015-Feb-24 21:31N 44°18' E 008°29'0 0.0
2015-Feb-24 20:31N 44°18' E 008°29'0 0.0
2015-Feb-24 19:25N 44°18' E 008°29'0 0.0
2015-Feb-24 18:31N 44°18' E 008°29'0 0.0
2015-Feb-24 17:31N 44°18' E 008°29'0 0.0
2015-Feb-24 16:31N 44°18' E 008°29'0 0.0
2015-Feb-24 15:31N 44°18' E 008°29'0 0.0
2015-Feb-24 14:31N 44°18' E 008°29'0 0.0
2015-Feb-24 13:31N 44°18' E 008°29'0 0.0
2015-Feb-24 12:31N 44°18' E 008°29'0 0.0
2015-Feb-24 11:31N 44°18' E 008°29'0 0.0
2015-Feb-24 10:31N 44°18' E 008°29'0 0.0
2015-Feb-24 09:31N 44°18' E 008°29'0 0.0
2015-Feb-24 08:31N 44°18' E 008°29'0 0.0
2015-Feb-24 07:31N 44°18' E 008°29'0 0.0
2015-Feb-24 06:31N 44°18' E 008°29'0 0.0
2015-Feb-24 05:31N 44°18' E 008°29'0 0.0
2015-Feb-24 04:31N 44°18' E 008°29'0 0.0
2015-Feb-24 03:31N 44°18' E 008°29'0 0.0
2015-Feb-24 02:31N 44°18' E 008°29'0 0.0
2015-Feb-24 01:31N 44°18' E 008°29'0 0.0
2015-Feb-24 00:31N 44°18' E 008°29'0 0.0
2015-Feb-23 23:31N 44°18' E 008°29'0 0.0
2015-Feb-23 22:31N 44°18' E 008°29'0 0.0
2015-Feb-23 21:31N 44°18' E 008°29'0 0.0
2015-Feb-23 20:31N 44°18' E 008°29'0 0.0
2015-Feb-23 19:31N 44°18' E 008°29'0 0.0
2015-Feb-23 18:31N 44°18' E 008°29'0 0.0
2015-Feb-23 17:25N 44°18' E 008°29'0 0.0
2015-Feb-23 16:31N 44°18' E 008°29'0 0.0
2015-Feb-23 15:31N 44°18' E 008°29'0 0.0
2015-Feb-23 14:31N 44°18' E 008°29'0 0.0
2015-Feb-23 13:31N 44°18' E 008°29'0 0.0
2015-Feb-23 12:31N 44°18' E 008°29'0 0.0
2015-Feb-23 11:31N 44°18' E 008°29'0 0.0
2015-Feb-23 10:31N 44°18' E 008°29'0 0.0
2015-Feb-23 09:31N 44°18' E 008°29'0 0.0
2015-Feb-23 08:31N 44°18' E 008°29'0 0.0
2015-Feb-23 07:31N 44°18' E 008°29'0 0.0
2015-Feb-23 06:31N 44°18' E 008°29'0 0.0
2015-Feb-23 05:31N 44°18' E 008°29'0 0.0
2015-Feb-23 04:31N 44°18' E 008°29'0 0.0
2015-Feb-23 03:25N 44°18' E 008°29'0 0.0
2015-Feb-23 02:31N 44°18' E 008°29'0 0.0
2015-Feb-23 01:31N 44°18' E 008°29'0 0.0
2015-Feb-23 00:31N 44°18' E 008°29'0 0.0
2015-Feb-22 23:31N 44°18' E 008°29'0 0.0
2015-Feb-22 22:31N 44°18' E 008°29'0 0.0
2015-Feb-22 21:31N 44°18' E 008°29'0 0.0
2015-Feb-22 20:31N 44°18' E 008°29'0 0.0
2015-Feb-22 19:25N 44°18' E 008°29'0 0.0
2015-Feb-22 18:31N 44°18' E 008°29'0 0.0
2015-Feb-22 17:31N 44°18' E 008°29'0 0.0
2015-Feb-22 16:31N 44°18' E 008°29'0 0.0
2015-Feb-22 15:31N 44°18' E 008°29'0 0.0
2015-Feb-22 14:31N 44°18' E 008°29'0 0.0
2015-Feb-22 13:31N 44°18' E 008°29'0 0.0
2015-Feb-22 12:31N 44°18' E 008°29'0 0.0
2015-Feb-22 11:31N 44°18' E 008°29'0 0.0
2015-Feb-22 10:31N 44°18' E 008°29'1 1.0
2015-Feb-22 09:33N 44°19' E 008°31'1 1.0
2015-Feb-22 08:33N 44°18' E 008°29'0 0.0
2015-Feb-22 07:27N 44°18' E 008°29'0 0.0
2015-Feb-22 06:27N 44°18' E 008°29'0 0.0
2015-Feb-22 05:33N 44°18' E 008°29'0 0.0
2015-Feb-22 04:33N 44°18' E 008°29'0 0.0
2015-Feb-22 03:33N 44°18' E 008°29'0 0.0
2015-Feb-22 02:33N 44°18' E 008°29'0 0.0
2015-Feb-22 01:33N 44°18' E 008°29'0 0.0
2015-Feb-22 00:33N 44°18' E 008°29'0 0.0
2015-Feb-21 23:33N 44°18' E 008°29'0 0.0
2015-Feb-21 22:33N 44°18' E 008°29'0 0.0
2015-Feb-21 21:33N 44°18' E 008°29'0 0.0
2015-Feb-21 20:33N 44°18' E 008°29'0 0.0
2015-Feb-21 19:33N 44°18' E 008°29'0 0.0
2015-Feb-21 18:33N 44°18' E 008°29'0 0.0
2015-Feb-21 17:33N 44°18' E 008°29'0 0.0
2015-Feb-21 16:33N 44°18' E 008°29'0 0.0
2015-Feb-21 15:33N 44°18' E 008°29'0 0.0
2015-Feb-21 14:33N 44°18' E 008°29'0 0.0
2015-Feb-21 13:33N 44°18' E 008°29'0 0.0
2015-Feb-21 12:33N 44°18' E 008°29'0 0.0
2015-Feb-21 11:33N 44°18' E 008°29'0 0.0
2015-Feb-21 10:33N 44°18' E 008°29'0 0.0
2015-Feb-21 09:33N 44°18' E 008°29'0 0.0
2015-Feb-21 08:33N 44°18' E 008°29'0 0.0
2015-Feb-21 07:33N 44°18' E 008°29'0 0.0
2015-Feb-21 06:33N 44°18' E 008°29'0 0.0
2015-Feb-21 05:33N 44°18' E 008°29'0 0.0
2015-Feb-21 04:33N 44°18' E 008°29'0 0.0
2015-Feb-21 03:33N 44°18' E 008°29'0 0.0
2015-Feb-21 02:33N 44°18' E 008°29'0 0.0
2015-Feb-21 01:33N 44°18' E 008°29'0 0.0
2015-Feb-21 00:33N 44°18' E 008°29'0 0.0
2015-Feb-20 23:33N 44°18' E 008°29'1 1.2
2015-Feb-20 22:33N 44°17' E 008°29'0 0.5
2015-Feb-20 21:33N 44°18' E 008°29'1 0.7
2015-Feb-20 20:33N 44°18' E 008°29'0 0.0
2015-Feb-20 19:33N 44°18' E 008°29'0 0.0
2015-Feb-20 18:33N 44°18' E 008°29'0 0.0
2015-Feb-20 17:33N 44°18' E 008°29'0 0.0
2015-Feb-20 16:33N 44°18' E 008°29'0 0.0
2015-Feb-20 15:33N 44°18' E 008°29'0 0.0
2015-Feb-20 14:33N 44°18' E 008°29'0 0.0
2015-Feb-20 13:33N 44°18' E 008°29'0 0.0
2015-Feb-20 12:33N 44°18' E 008°29'0 0.0
2015-Feb-20 11:33N 44°18' E 008°29'0 0.0
2015-Feb-20 10:33N 44°18' E 008°29'0 0.0
2015-Feb-20 09:33N 44°18' E 008°29'0 0.0
2015-Feb-20 08:33N 44°18' E 008°29'0 0.0
2015-Feb-20 07:33N 44°18' E 008°29'0 0.0
2015-Feb-20 06:33N 44°18' E 008°29'0 0.0
2015-Feb-20 05:33N 44°18' E 008°29'0 0.0
2015-Feb-20 04:33N 44°18' E 008°29'0 0.0
2015-Feb-20 03:33N 44°18' E 008°29'0 0.0
2015-Feb-20 02:33N 44°18' E 008°29'0 0.0
2015-Feb-20 01:33N 44°18' E 008°29'0 0.0
2015-Feb-20 00:33N 44°18' E 008°29'0 0.0
2015-Feb-19 23:33N 44°18' E 008°29'0 0.0
2015-Feb-19 22:33N 44°18' E 008°29'0 0.0
2015-Feb-19 21:33N 44°18' E 008°29'0 0.0
2015-Feb-19 20:33N 44°18' E 008°29'0 0.0
2015-Feb-19 19:33N 44°18' E 008°29'0 0.0
2015-Feb-19 18:33N 44°18' E 008°29'0 0.0
2015-Feb-19 17:33N 44°18' E 008°29'0 0.0
2015-Feb-19 16:33N 44°18' E 008°29'2 2.1
2015-Feb-19 15:33N 44°17' E 008°28'0 0.1
2015-Feb-19 14:33N 44°17' E 008°28'2 2.1
2015-Feb-19 13:33N 44°18' E 008°29'0 0.0
2015-Feb-19 12:33N 44°18' E 008°29'0 0.0
2015-Feb-19 11:33N 44°18' E 008°29'0 0.0
2015-Feb-19 10:33N 44°18' E 008°29'0 0.0
2015-Feb-19 09:33N 44°18' E 008°29'0 0.0
2015-Feb-19 08:33N 44°18' E 008°29'0 0.0
2015-Feb-19 07:33N 44°18' E 008°29'0 0.0
2015-Feb-19 06:33N 44°18' E 008°29'0 0.4
2015-Feb-19 05:33N 44°19' E 008°30'0 0.4
2015-Feb-19 04:33N 44°18' E 008°29'0 0.0
2015-Feb-19 03:33N 44°18' E 008°29'0 0.0
2015-Feb-19 02:33N 44°18' E 008°29'0 0.0
2015-Feb-19 01:34N 44°18' E 008°29'0 0.0
2015-Feb-19 00:33N 44°18' E 008°29'0 0.0
2015-Feb-18 23:33N 44°18' E 008°29'0 0.0
2015-Feb-18 22:33N 44°18' E 008°29'0 0.0
2015-Feb-18 21:33N 44°18' E 008°29'0 0.0
2015-Feb-18 20:33N 44°18' E 008°29'0 0.0
2015-Feb-18 19:33N 44°18' E 008°29'  

Dump ship's entire track history